createdAt,value
2018-02-04T00:01:31.455Z,27.67
2018-02-04T00:04:03.882Z,29.17
2018-02-04T00:06:33.628Z,28.73
2018-02-04T00:09:05.713Z,28.37
2018-02-04T00:11:35.450Z,25.60
2018-02-04T00:14:09.030Z,26.97
2018-02-04T00:16:39.068Z,26.33
2018-02-04T00:19:12.576Z,25.17
2018-02-04T00:21:42.888Z,25.03
2018-02-04T00:24:12.398Z,23.57
2018-02-04T00:26:49.827Z,24.03
2018-02-04T00:29:20.321Z,24.50
2018-02-04T00:31:53.918Z,25.07
2018-02-04T00:34:25.641Z,25.97
2018-02-04T00:36:58.377Z,25.10
2018-02-04T00:39:28.721Z,24.50
2018-02-04T00:42:01.927Z,24.33
2018-02-04T00:44:38.716Z,21.07
2018-02-04T00:47:08.117Z,15.43
2018-02-04T00:49:38.461Z,16.20
2018-02-04T00:52:11.895Z,15.70
2018-02-04T00:54:45.526Z,14.93
2018-02-04T00:57:17.232Z,14.27
2018-02-04T00:59:50.498Z,14.77
2018-02-04T01:02:25.243Z,14.83
2018-02-04T01:04:55.587Z,14.93
2018-02-04T01:07:25.176Z,14.23
2018-02-04T01:09:57.172Z,13.97
2018-02-04T01:12:29.250Z,13.30
2018-02-04T01:14:59.491Z,12.67
2018-02-04T01:17:32.358Z,12.80
2018-02-04T01:20:01.769Z,12.77
2018-02-04T01:22:31.241Z,13.63
2018-02-04T01:25:00.813Z,12.73
2018-02-04T01:27:33.685Z,12.23
2018-02-04T01:30:03.225Z,12.17
2018-02-04T01:32:36.418Z,12.93
2018-02-04T01:35:12.326Z,12.43
2018-02-04T01:37:54.783Z,12.40
2018-02-04T01:40:33.105Z,12.03
2018-02-04T01:43:02.535Z,11.23
2018-02-04T01:45:34.103Z,11.07
2018-02-04T01:48:17.414Z,10.53
2018-02-04T01:53:45.382Z,10.53
2018-02-04T01:56:20.518Z,11.27
2018-02-04T01:59:06.503Z,10.87
2018-02-04T02:01:42.455Z,10.67
2018-02-04T02:04:26.132Z,11.47
2018-02-04T02:06:55.523Z,11.53
2018-02-04T02:09:38.587Z,11.87
2018-02-04T02:14:48.281Z,11.00
2018-02-04T02:17:22.696Z,12.17
2018-02-04T02:19:58.945Z,13.57
2018-02-04T02:22:28.453Z,13.73
2018-02-04T02:24:58.113Z,14.07
2018-02-04T02:27:27.524Z,13.73
2018-02-04T02:29:56.967Z,16.20
2018-02-04T02:32:29.324Z,13.33
2018-02-04T02:34:59.499Z,13.17
2018-02-04T02:37:44.938Z,15.47
2018-02-04T02:43:44.690Z,15.23
2018-02-04T02:46:18.861Z,15.37
2018-02-04T02:48:51.319Z,15.80
2018-02-04T02:55:00.809Z,15.40
2018-02-04T02:57:37.384Z,15.13
2018-02-04T03:00:06.783Z,15.30
2018-02-04T03:02:37.649Z,15.23
2018-02-04T03:05:10.335Z,14.97
2018-02-04T03:07:39.919Z,16.33
2018-02-04T03:10:13.251Z,15.53
2018-02-04T03:12:46.754Z,15.23
2018-02-04T03:15:19.413Z,14.33
2018-02-04T03:18:03.320Z,13.10
2018-02-04T03:20:32.988Z,12.80
2018-02-04T03:23:02.780Z,12.10
2018-02-04T03:25:33.226Z,11.57
2018-02-04T03:28:10.092Z,10.53
2018-02-04T03:30:48.889Z,11.03
2018-02-04T03:33:18.471Z,11.13
2018-02-04T03:38:58.868Z,10.50
2018-02-04T03:41:28.258Z,11.63
2018-02-04T03:43:57.651Z,10.03
2018-02-04T03:49:08.140Z,11.60
2018-02-04T03:51:40.539Z,11.27
2018-02-04T03:54:13.601Z,10.90
2018-02-04T03:56:43.066Z,10.23
2018-02-04T03:59:20.296Z,10.27
2018-02-04T04:01:49.676Z,10.87
2018-02-04T04:04:23.348Z,9.80
2018-02-04T04:06:57.140Z,9.47
2018-02-04T04:09:37.973Z,9.83
2018-02-04T04:12:20.491Z,10.53
2018-02-04T04:14:53.238Z,9.17
2018-02-04T04:17:28.424Z,11.03
2018-02-04T04:20:06.610Z,11.37
2018-02-04T04:22:53.248Z,9.93
2018-02-04T04:25:22.689Z,10.10
2018-02-04T04:27:52.124Z,9.63
2018-02-04T04:30:26.584Z,9.63
2018-02-04T04:32:56.537Z,10.47
2018-02-04T04:35:28.682Z,9.67
2018-02-04T04:37:58.175Z,9.40
2018-02-04T04:40:27.603Z,8.83
2018-02-04T04:42:57.235Z,10.03
2018-02-04T04:45:26.765Z,9.27
2018-02-04T04:47:56.536Z,9.20
2018-02-04T04:50:30.428Z,9.17
2018-02-04T04:53:08.040Z,9.57
2018-02-04T04:55:37.727Z,8.10
2018-02-04T04:58:20.264Z,9.27
2018-02-04T23:48:46.952Z,7.23
